createdAt,value
2018-03-18T00:01:55.996Z,7.50
2018-03-18T00:04:24.361Z,7.60
2018-03-18T00:06:52.734Z,8.10
2018-03-18T00:09:21.116Z,8.00
2018-03-18T00:11:49.497Z,6.40
2018-03-18T00:14:17.864Z,6.83
2018-03-18T00:16:46.242Z,7.30
2018-03-18T00:19:14.637Z,6.57
2018-03-18T00:21:43.008Z,7.60
2018-03-18T00:24:11.545Z,6.23
2018-03-18T00:26:40.018Z,7.80
2018-03-18T00:29:08.381Z,7.23
2018-03-18T00:31:36.744Z,6.80
2018-03-18T00:34:05.104Z,6.57
2018-03-18T00:36:33.504Z,6.80
2018-03-18T00:39:01.859Z,7.23
2018-03-18T00:41:30.953Z,6.40
2018-03-18T00:43:59.352Z,7.37
2018-03-18T00:46:27.711Z,6.33
2018-03-18T00:48:56.150Z,6.23
2018-03-18T00:51:42.271Z,6.63
2018-03-18T00:54:11.076Z,5.90
2018-03-18T00:56:39.400Z,6.43
2018-03-18T00:59:07.772Z,7.43
2018-03-18T01:01:36.147Z,6.63
2018-03-18T01:04:04.932Z,6.65
2018-03-18T01:06:33.307Z,6.55
2018-03-18T01:09:01.664Z,6.87
2018-03-18T01:11:30.044Z,7.30
2018-03-18T01:13:58.420Z,6.63
2018-03-18T01:16:26.796Z,6.20
2018-03-18T01:18:55.180Z,6.20
2018-03-18T01:21:23.540Z,5.40
2018-03-18T01:23:51.966Z,6.12
2018-03-18T01:26:20.328Z,7.13
2018-03-18T01:28:48.688Z,5.97
2018-03-18T01:31:17.113Z,6.30
2018-03-18T01:33:45.491Z,5.93
2018-03-18T01:36:14.280Z,6.25
2018-03-18T01:38:42.643Z,6.70
2018-03-18T01:41:11.036Z,7.03
2018-03-18T01:43:39.810Z,6.68
2018-03-18T01:46:08.175Z,6.90
2018-03-18T01:48:36.529Z,6.10
2018-03-18T01:51:04.929Z,6.63
2018-03-18T01:53:33.338Z,6.00
2018-03-18T01:56:01.707Z,6.27
2018-03-18T01:58:31.678Z,6.80
2018-03-18T02:01:00.071Z,5.75
2018-03-18T02:03:28.435Z,6.30
2018-03-18T02:05:56.803Z,5.57
2018-03-18T02:08:25.191Z,6.50
2018-03-18T02:10:53.591Z,5.87
2018-03-18T02:13:21.988Z,6.03
2018-03-18T02:15:50.361Z,6.40
2018-03-18T02:18:18.744Z,4.80
2018-03-18T02:20:47.145Z,6.45
2018-03-18T02:23:16.027Z,5.87
2018-03-18T02:25:44.421Z,6.25
2018-03-18T02:28:12.810Z,4.85
2018-03-18T02:30:41.597Z,5.95
2018-03-18T02:33:09.958Z,5.90
2018-03-18T02:35:38.348Z,5.65
2018-03-18T02:38:07.145Z,5.72
2018-03-18T02:40:35.856Z,5.45
2018-03-18T02:43:04.253Z,6.37
2018-03-18T02:45:32.635Z,5.78
2018-03-18T02:48:01.019Z,5.40
2018-03-18T02:50:29.398Z,7.80
2018-03-18T02:52:57.816Z,5.75
2018-03-18T02:55:26.608Z,6.12
2018-03-18T02:57:55.394Z,5.65
2018-03-18T03:00:24.200Z,5.37
2018-03-18T03:02:53.125Z,5.28
2018-03-18T03:05:21.558Z,4.82
2018-03-18T03:07:50.427Z,4.93
2018-03-18T03:10:18.821Z,5.15
2018-03-18T03:12:47.188Z,5.93
2018-03-18T03:15:15.572Z,4.97
2018-03-18T03:17:43.952Z,5.62
2018-03-18T03:20:12.344Z,5.70
2018-03-18T03:22:40.801Z,5.10
2018-03-18T03:25:09.200Z,5.22
2018-03-18T03:27:37.985Z,5.20
2018-03-18T03:30:06.866Z,5.25
2018-03-18T03:32:35.258Z,4.32
2018-03-18T03:35:04.061Z,5.80
2018-03-18T03:37:32.840Z,5.70
2018-03-18T03:40:01.629Z,6.00
2018-03-18T03:42:30.036Z,5.07
2018-03-18T03:44:58.416Z,5.10
2018-03-18T03:47:26.828Z,4.70
2018-03-18T03:49:55.228Z,5.15
2018-03-18T03:52:23.603Z,4.93
2018-03-18T03:54:52.730Z,5.03
2018-03-18T03:57:21.535Z,5.00
2018-03-18T03:59:50.290Z,5.33
2018-03-18T04:02:18.869Z,5.27
2018-03-18T04:04:47.645Z,5.20
2018-03-18T04:07:16.042Z,5.32
2018-03-18T04:09:44.823Z,5.12
2018-03-18T04:12:13.203Z,4.37
2018-03-18T04:14:42.118Z,4.80
2018-03-18T04:17:10.563Z,4.22
2018-03-18T04:19:39.055Z,4.90
2018-03-18T04:22:07.567Z,5.05
2018-03-18T04:24:35.952Z,5.25
2018-03-18T04:27:04.399Z,5.05
2018-03-18T04:29:32.781Z,5.15
2018-03-18T04:32:01.573Z,5.45
2018-03-18T04:34:30.368Z,4.80
2018-03-18T04:36:59.177Z,4.70
2018-03-18T04:39:27.552Z,4.55
2018-03-18T04:41:55.971Z,5.12
2018-03-18T04:44:24.367Z,5.10
2018-03-18T04:46:52.797Z,4.65
2018-03-18T04:49:21.166Z,5.15
2018-03-18T04:51:49.589Z,4.60
2018-03-18T04:54:17.997Z,4.80
2018-03-18T04:56:46.479Z,4.65
2018-03-18T04:59:14.909Z,5.12
2018-03-18T05:01:43.681Z,4.50
2018-03-18T05:04:12.084Z,4.68
2018-03-18T05:06:40.479Z,4.78
2018-03-18T05:09:09.056Z,4.50
2018-03-18T05:11:37.446Z,4.25
2018-03-18T05:14:05.845Z,5.28
2018-03-18T05:16:34.238Z,4.80
2018-03-18T05:19:03.020Z,5.37
2018-03-18T05:21:31.399Z,4.70
2018-03-18T05:24:00.183Z,5.20
2018-03-18T05:26:28.574Z,4.30
2018-03-18T05:28:57.354Z,4.87
2018-03-18T05:31:26.151Z,5.12
2018-03-18T05:33:54.539Z,5.35
2018-03-18T05:36:22.926Z,4.80
2018-03-18T05:38:51.312Z,4.40
2018-03-18T05:41:19.708Z,5.32
2018-03-18T05:43:48.076Z,4.80
2018-03-18T05:46:16.452Z,4.50
2018-03-18T05:48:45.208Z,4.57
2018-03-18T05:51:13.580Z,4.30
2018-03-18T05:53:41.951Z,5.40
2018-03-18T05:56:10.336Z,5.23
2018-03-18T05:58:38.693Z,5.50
2018-03-18T06:01:07.072Z,4.80
2018-03-18T06:03:35.428Z,4.80
2018-03-18T06:06:03.780Z,4.40
2018-03-18T06:08:32.540Z,5.10
2018-03-18T06:11:00.893Z,4.50
2018-03-18T06:13:29.250Z,5.43
2018-03-18T06:15:57.609Z,5.33
2018-03-18T06:18:26.356Z,5.10
2018-03-18T06:20:54.758Z,5.87
2018-03-18T06:23:23.119Z,5.20
2018-03-18T06:25:51.492Z,5.07
2018-03-18T06:28:19.859Z,5.07
2018-03-18T06:30:48.228Z,4.20
2018-03-18T06:33:17.185Z,5.30
2018-03-18T06:35:45.944Z,5.53
2018-03-18T06:38:14.292Z,4.70
2018-03-18T06:40:42.684Z,5.13
2018-03-18T06:43:11.043Z,4.80
2018-03-18T06:45:39.435Z,4.97
2018-03-18T06:48:07.784Z,4.97
2018-03-18T06:50:36.154Z,5.57
2018-03-18T06:53:04.912Z,6.17
2018-03-18T06:55:33.259Z,6.40
2018-03-18T06:58:01.608Z,5.63
2018-03-18T07:00:30.032Z,6.37
2018-03-18T07:02:59.201Z,5.10
2018-03-18T07:05:27.582Z,5.73
2018-03-18T07:07:55.923Z,6.60
2018-03-18T07:10:24.676Z,4.50
2018-03-18T07:12:53.026Z,5.30
2018-03-18T07:15:21.492Z,5.87
2018-03-18T07:17:49.849Z,5.20
2018-03-18T07:20:18.621Z,5.97
2018-03-18T07:22:47.387Z,5.47
2018-03-18T07:25:15.759Z,5.03
2018-03-18T07:27:44.112Z,5.37
2018-03-18T07:30:12.643Z,5.10
2018-03-18T07:32:41.016Z,4.93
2018-03-18T07:35:09.379Z,4.67
2018-03-18T07:37:37.729Z,4.87
2018-03-18T07:40:06.112Z,5.00
2018-03-18T07:42:34.472Z,5.03
2018-03-18T07:45:02.823Z,5.57
2018-03-18T07:47:32.375Z,5.27
2018-03-18T07:50:00.789Z,5.13
2018-03-18T07:52:29.153Z,4.40
2018-03-18T07:54:57.504Z,5.00
2018-03-18T07:57:25.863Z,4.70
2018-03-18T07:59:54.600Z,5.67
2018-03-18T08:02:22.951Z,5.60
2018-03-18T08:04:51.304Z,4.80
2018-03-18T08:07:20.168Z,5.40
2018-03-18T08:09:48.512Z,5.30
2018-03-18T08:12:16.870Z,5.90
2018-03-18T08:14:45.232Z,5.63
2018-03-18T08:17:13.584Z,5.73
2018-03-18T08:19:42.355Z,5.13
2018-03-18T08:22:10.712Z,5.87
2018-03-18T08:24:39.058Z,6.00
2018-03-18T08:27:07.433Z,5.47
2018-03-18T08:29:35.783Z,4.80
2018-03-18T08:32:04.140Z,5.83
2018-03-18T08:34:32.590Z,5.10
2018-03-18T08:37:00.939Z,6.20
2018-03-18T08:39:29.686Z,5.47
2018-03-18T08:41:58.055Z,5.73
2018-03-18T08:44:26.400Z,5.40
2018-03-18T08:46:54.759Z,7.13
2018-03-18T08:49:23.504Z,4.67
2018-03-18T08:51:51.876Z,4.63
2018-03-18T08:54:20.252Z,5.77
2018-03-18T08:56:48.612Z,5.27
2018-03-18T08:59:16.997Z,5.70
2018-03-18T09:01:45.359Z,5.60
2018-03-18T09:04:14.160Z,4.80
2018-03-18T09:06:42.564Z,4.70
2018-03-18T09:09:10.932Z,4.80
2018-03-18T09:11:39.285Z,5.07
2018-03-18T09:14:07.628Z,4.50
2018-03-18T09:16:35.981Z,4.67
2018-03-18T09:19:04.345Z,4.70
2018-03-18T09:21:33.648Z,5.57
2018-03-18T09:24:02.005Z,5.90
2018-03-18T09:26:30.368Z,5.60
2018-03-18T09:28:59.131Z,5.70
2018-03-18T09:31:27.484Z,5.40
2018-03-18T09:33:55.867Z,4.47
2018-03-18T09:36:24.235Z,4.60
2018-03-18T09:38:52.701Z,4.37
2018-03-18T09:41:21.115Z,4.40
2018-03-18T09:43:49.456Z,4.10
2018-03-18T09:46:17.860Z,4.37
2018-03-18T09:48:46.236Z,4.70
2018-03-18T09:51:14.591Z,4.57
2018-03-18T09:53:42.939Z,5.60
2018-03-18T09:56:11.749Z,4.93
2018-03-18T09:58:40.088Z,4.70
2018-03-18T10:01:08.518Z,4.50
2018-03-18T10:03:36.862Z,4.13
2018-03-18T10:06:05.608Z,3.87
2018-03-18T10:08:33.965Z,4.77
2018-03-18T10:11:02.323Z,4.13
2018-03-18T10:13:30.726Z,4.23
2018-03-18T10:15:59.104Z,4.50
2018-03-18T10:18:27.452Z,4.60
2018-03-18T10:20:56.205Z,4.10
2018-03-18T10:23:24.557Z,4.53
2018-03-18T10:25:52.920Z,4.20
2018-03-18T10:28:21.267Z,3.70
2018-03-18T10:30:50.040Z,3.70
2018-03-18T10:33:18.787Z,3.50
2018-03-18T10:35:47.164Z,4.33
2018-03-18T10:38:15.511Z,3.97
2018-03-18T10:40:43.869Z,4.20
2018-03-18T10:43:12.239Z,3.60
2018-03-18T10:45:40.605Z,4.37
2018-03-18T10:48:08.965Z,3.37
2018-03-18T10:50:37.335Z,4.30
2018-03-18T10:53:05.692Z,4.20
2018-03-18T10:55:34.052Z,3.90
2018-03-18T10:58:02.791Z,4.00
2018-03-18T11:00:36.610Z,4.23
2018-03-18T11:03:04.960Z,4.00
2018-03-18T11:05:33.315Z,4.47
2018-03-18T11:08:01.728Z,3.30
2018-03-18T11:10:30.152Z,3.77
2018-03-18T11:12:59.016Z,4.50
2018-03-18T11:15:27.413Z,4.93
2018-03-18T11:17:55.756Z,4.50
2018-03-18T11:20:24.206Z,4.00
2018-03-18T11:22:52.596Z,4.23
2018-03-18T11:25:21.014Z,4.53
2018-03-18T11:27:49.375Z,3.67
2018-03-18T11:30:17.744Z,4.20
2018-03-18T11:32:46.095Z,4.10
2018-03-18T11:35:14.493Z,4.07
2018-03-18T11:40:17.615Z,4.30
2018-03-18T11:42:45.996Z,4.00
2018-03-18T11:45:14.364Z,4.90
2018-03-18T11:47:42.717Z,4.53
2018-03-18T11:50:11.132Z,4.13
2018-03-18T11:52:39.508Z,3.97
2018-03-18T11:55:07.879Z,3.33
2018-03-18T11:57:36.271Z,4.43
2018-03-18T12:00:04.657Z,4.03
2018-03-18T12:02:33.004Z,4.50
2018-03-18T12:05:01.360Z,3.60
2018-03-18T12:07:29.739Z,4.60
2018-03-18T12:09:58.087Z,3.80
2018-03-18T12:12:26.445Z,4.10
2018-03-18T12:14:54.787Z,4.33
2018-03-18T12:17:23.149Z,3.73
2018-03-18T12:19:51.504Z,4.50
2018-03-18T12:22:19.907Z,4.33
2018-03-18T12:24:48.247Z,4.10
2018-03-18T12:27:16.608Z,4.17
2018-03-18T12:29:45.004Z,4.03
2018-03-18T12:32:13.368Z,3.77
2018-03-18T12:34:41.716Z,3.50
2018-03-18T12:37:10.084Z,4.03
2018-03-18T12:39:56.216Z,3.73
2018-03-18T12:42:42.256Z,5.30
2018-03-18T12:45:11.080Z,3.20
2018-03-18T12:47:39.580Z,3.80
2018-03-18T12:50:07.934Z,3.67
2018-03-18T12:52:36.292Z,3.60
2018-03-18T12:55:04.643Z,4.97
2018-03-18T12:57:33.004Z,4.40
2018-03-18T13:00:01.365Z,6.47
2018-03-18T13:02:29.719Z,5.27
2018-03-18T13:04:58.083Z,4.37
2018-03-18T13:07:26.839Z,4.03
2018-03-18T13:09:55.202Z,3.70
2018-03-18T13:12:23.567Z,4.40
2018-03-18T13:14:51.924Z,3.30
2018-03-18T13:17:20.343Z,3.30
2018-03-18T13:19:48.731Z,3.10
2018-03-18T13:22:17.144Z,3.60
2018-03-18T13:24:45.564Z,4.67
2018-03-18T13:27:14.271Z,3.60
2018-03-18T13:29:42.648Z,4.00
2018-03-18T13:32:11.013Z,4.00
2018-03-18T13:34:39.369Z,4.37
2018-03-18T13:37:07.780Z,3.97
2018-03-18T13:39:36.133Z,4.20
2018-03-18T13:42:04.526Z,3.30
2018-03-18T13:44:32.872Z,3.43
2018-03-18T13:47:01.231Z,4.87
2018-03-18T13:49:29.984Z,4.10
2018-03-18T13:51:58.340Z,3.03
2018-03-18T13:54:26.703Z,3.40
2018-03-18T13:56:55.059Z,4.00
2018-03-18T13:59:23.812Z,4.47
2018-03-18T14:01:52.169Z,3.93
2018-03-18T14:04:20.531Z,3.87
2018-03-18T14:06:48.912Z,3.77
2018-03-18T14:09:17.264Z,3.43
2018-03-18T14:11:46.031Z,4.37
2018-03-18T14:14:14.377Z,3.40
2018-03-18T14:16:42.736Z,4.00
2018-03-18T14:19:11.100Z,4.63
2018-03-18T14:21:39.459Z,4.07
2018-03-18T14:24:08.203Z,3.70
2018-03-18T14:26:36.564Z,4.90
2018-03-18T15:18:06.823Z,4.43
2018-03-18T15:20:35.175Z,4.80
2018-03-18T15:23:03.514Z,4.60
2018-03-18T15:25:32.274Z,4.27
2018-03-18T15:28:00.623Z,3.73
2018-03-18T15:30:28.992Z,4.10
2018-03-18T15:32:57.345Z,4.07
2018-03-18T15:35:25.788Z,4.10
2018-03-18T15:37:54.140Z,3.80
2018-03-18T15:40:22.533Z,4.30
2018-03-18T15:42:50.907Z,4.23
2018-03-18T15:45:19.296Z,4.53
2018-03-18T15:47:47.710Z,3.67
2018-03-18T15:50:16.024Z,4.50
2018-03-18T15:52:44.377Z,3.73
2018-03-18T15:55:12.784Z,3.97
2018-03-18T15:57:41.215Z,3.00
2018-03-18T16:00:09.964Z,4.33
2018-03-18T16:02:38.342Z,4.53
2018-03-18T16:05:06.798Z,3.60
2018-03-18T16:07:35.207Z,4.60
2018-03-18T16:10:03.579Z,3.67
2018-03-18T16:12:32.044Z,3.93
2018-03-18T16:15:00.558Z,4.07
2018-03-18T16:17:29.057Z,4.73
2018-03-18T16:19:57.569Z,4.27
2018-03-18T16:22:26.081Z,3.27
2018-03-18T16:24:54.529Z,3.80
2018-03-18T16:27:23.032Z,3.87
2018-03-18T16:30:09.246Z,3.70
2018-03-18T16:32:37.780Z,4.77
2018-03-18T16:35:06.269Z,4.80
2018-03-18T16:37:34.720Z,3.80
2018-03-18T16:40:03.629Z,4.83
2018-03-18T16:42:32.148Z,4.23
2018-03-18T16:45:00.652Z,3.63
2018-03-18T16:47:29.129Z,4.53
2018-03-18T16:52:22.703Z,4.33
2018-03-18T16:55:05.438Z,4.13
2018-03-18T16:57:35.586Z,7.30
2018-03-18T17:00:16.397Z,5.13
2018-03-18T17:02:45.260Z,4.00
2018-03-18T17:05:43.675Z,5.03
2018-03-18T17:08:24.277Z,4.77
2018-03-18T17:11:11.606Z,4.57
2018-03-18T17:14:00.531Z,5.13
2018-03-18T17:16:36.587Z,4.70
2018-03-18T17:19:20.632Z,5.50
2018-03-18T17:25:18.488Z,5.27
2018-03-18T17:27:47.985Z,4.43
2018-03-18T17:30:16.518Z,4.07
2018-03-18T17:32:45.939Z,4.80
2018-03-18T17:35:14.408Z,4.20
2018-03-18T17:37:43.153Z,4.90
2018-03-18T17:40:12.191Z,4.57
2018-03-18T17:42:40.945Z,4.07
2018-03-18T17:45:27.632Z,4.90
2018-03-18T17:48:13.616Z,4.50
2018-03-18T17:51:00.464Z,4.80
2018-03-18T17:53:46.662Z,4.53
2018-03-18T17:56:33.696Z,5.00
2018-03-18T18:01:35.220Z,4.13
2018-03-18T18:04:04.276Z,4.77
2018-03-18T18:06:32.844Z,5.27
2018-03-18T18:09:01.886Z,4.70
2018-03-18T18:11:31.011Z,4.97
2018-03-18T18:14:00.000Z,5.03
2018-03-18T18:16:29.827Z,5.57
2018-03-18T18:18:58.584Z,4.80
2018-03-18T18:21:27.749Z,4.17
2018-03-18T18:24:04.980Z,5.47
2018-03-18T18:26:33.820Z,5.50
2018-03-18T18:31:36.146Z,5.07
2018-03-18T18:34:05.170Z,5.30
2018-03-18T18:36:34.672Z,4.73
2018-03-18T18:39:03.265Z,4.93
2018-03-18T18:41:32.160Z,4.60
2018-03-18T18:44:01.055Z,5.10
2018-03-18T18:46:29.794Z,5.90
2018-03-18T18:48:58.665Z,4.77
2018-03-18T18:51:27.188Z,5.30
2018-03-18T18:53:55.726Z,4.30
2018-03-18T18:56:24.517Z,4.50
2018-03-18T18:58:53.444Z,5.23
2018-03-18T19:01:22.692Z,5.63
2018-03-18T19:03:51.287Z,5.10
2018-03-18T19:06:20.409Z,6.20
2018-03-18T19:08:49.561Z,5.90
2018-03-18T19:11:18.386Z,4.97
2018-03-18T19:13:47.122Z,6.00
2018-03-18T19:16:15.803Z,5.47
2018-03-18T19:18:45.273Z,5.53
2018-03-18T19:21:13.838Z,25.03
2018-03-18T19:23:42.629Z,23.47
2018-03-18T19:26:11.730Z,8.70
2018-03-18T19:28:40.664Z,4.63
2018-03-18T19:31:09.290Z,6.10
2018-03-18T19:33:38.315Z,5.80
2018-03-18T19:36:06.952Z,5.53
2018-03-18T19:38:35.477Z,6.07
2018-03-18T19:41:04.576Z,5.10
2018-03-18T19:43:33.398Z,5.07
2018-03-18T19:46:02.762Z,5.77
2018-03-18T19:48:31.348Z,4.93
2018-03-18T19:51:00.153Z,6.10
2018-03-18T19:53:28.592Z,5.10
2018-03-18T19:55:57.328Z,4.70
2018-03-18T19:58:25.970Z,5.13
2018-03-18T20:00:54.806Z,5.50
2018-03-18T20:03:23.593Z,6.00
2018-03-18T20:05:52.373Z,5.53
2018-03-18T20:08:21.163Z,5.20
2018-03-18T20:10:50.015Z,5.47
2018-03-18T20:13:27.270Z,5.10
2018-03-18T20:15:56.084Z,4.33
2018-03-18T20:18:24.857Z,4.70
2018-03-18T20:20:57.228Z,5.67
2018-03-18T20:23:26.640Z,5.80
2018-03-18T20:29:27.743Z,5.43
2018-03-18T20:31:56.313Z,5.40
2018-03-18T20:34:24.973Z,5.03
2018-03-18T20:36:53.901Z,5.73
2018-03-18T20:39:23.596Z,6.50
2018-03-18T20:41:53.357Z,5.20
2018-03-18T20:44:22.751Z,5.53
2018-03-18T20:46:53.293Z,4.47
2018-03-18T20:49:22.588Z,6.33
2018-03-18T20:51:51.354Z,5.67
2018-03-18T20:54:22.223Z,6.00
2018-03-18T20:56:50.728Z,6.73
2018-03-18T20:59:21.175Z,6.47
2018-03-18T21:01:51.264Z,5.90
2018-03-18T21:04:20.690Z,6.33
2018-03-18T21:06:51.994Z,5.80
2018-03-18T21:09:21.112Z,7.03
2018-03-18T21:11:50.526Z,6.00
2018-03-18T21:14:19.263Z,6.07
2018-03-18T21:16:48.044Z,5.97
2018-03-18T21:19:16.544Z,6.90
2018-03-18T21:21:45.094Z,5.80
2018-03-18T21:24:13.833Z,6.20
2018-03-18T21:26:42.651Z,6.27
2018-03-18T21:29:11.417Z,6.77
2018-03-18T21:31:40.653Z,6.60
2018-03-18T21:34:09.481Z,5.60
2018-03-18T21:36:37.954Z,5.97
2018-03-18T21:39:06.476Z,6.90
2018-03-18T21:41:36.036Z,6.70
2018-03-18T21:44:04.683Z,5.60
2018-03-18T21:46:34.125Z,6.43
2018-03-18T21:49:02.961Z,5.93
2018-03-18T21:51:31.824Z,7.43
2018-03-18T21:54:00.590Z,7.13
2018-03-18T21:56:29.209Z,6.73
2018-03-18T21:58:58.341Z,6.60
2018-03-18T22:01:27.244Z,6.60
2018-03-18T22:03:56.545Z,6.10
2018-03-18T22:06:25.986Z,7.13
2018-03-18T22:08:55.587Z,5.87
2018-03-18T22:11:24.567Z,6.80
2018-03-18T22:13:53.276Z,6.70
2018-03-18T22:16:22.448Z,6.67
2018-03-18T22:18:51.309Z,6.70
2018-03-18T22:21:19.908Z,6.83
2018-03-18T22:23:49.546Z,6.30
2018-03-18T22:26:18.839Z,6.30
2018-03-18T22:28:47.860Z,7.10
2018-03-18T22:31:16.778Z,6.37
2018-03-18T22:33:46.205Z,6.87
2018-03-18T22:36:15.754Z,6.10
2018-03-18T22:38:44.606Z,7.00
2018-03-18T22:41:13.626Z,6.90
2018-03-18T22:43:42.339Z,6.90
2018-03-18T22:46:11.507Z,6.80
2018-03-18T22:48:41.495Z,6.97
2018-03-18T22:51:11.779Z,7.47
2018-03-18T22:53:41.016Z,6.27
2018-03-18T22:56:09.959Z,6.20
2018-03-18T22:58:38.862Z,7.87
2018-03-18T23:01:07.837Z,6.97
2018-03-18T23:03:37.456Z,6.03
2018-03-18T23:06:06.365Z,6.10
2018-03-18T23:08:35.205Z,6.33
2018-03-18T23:11:04.719Z,6.63
2018-03-18T23:13:33.593Z,6.97
2018-03-18T23:16:02.364Z,6.20
2018-03-18T23:18:31.149Z,6.50
2018-03-18T23:21:00.552Z,7.17
2018-03-18T23:23:29.398Z,6.03
2018-03-18T23:25:57.958Z,6.37
2018-03-18T23:28:27.289Z,5.97
2018-03-18T23:30:57.287Z,6.77
2018-03-18T23:33:26.099Z,5.93
2018-03-18T23:35:54.816Z,7.20
2018-03-18T23:38:23.932Z,6.87
2018-03-18T23:40:52.726Z,5.97
2018-03-18T23:43:21.467Z,6.53
2018-03-18T23:45:51.384Z,6.83
2018-03-18T23:48:20.013Z,6.10
2018-03-18T23:50:49.219Z,7.57
2018-03-18T23:53:18.242Z,5.63
2018-03-18T23:55:47.263Z,7.50
2018-03-18T23:58:16.063Z,7.50
